CRL633 FMEE-FIMP
Flight info
| Callsign | CRL633 |
|---|---|
| Flight time | 0h 27m |
| Altitude | 15000 |
| Route | EPTEK2J EPTEK EPTEK2E |
| Aircraft | A339/H-SADE1E2E3GHIJ3J5M1P2RWXY/LB2D1 |
Departure
| Time | 2026-04-29 14:30 |
|---|---|
| Airport | Roland Garros Airport (FMEE) |
Arrival
| Time | 2026-04-29 14:57 |
|---|---|
| Airport | Sir Seewoosagur Ramgoolam International Airport (FIMP) |
| Time | Latitude | Longitude | Altitude | Speed | Heading |
|---|---|---|---|---|---|
| 2026-04-29 14:14 | -20.89056 | 55.51169 | 138 ft | 0 kts | 205° |
| 2026-04-29 14:20 | -20.89055 | 55.51170 | 138 ft | 0 kts | 205° |
| 2026-04-29 14:20 | -20.89042 | 55.51176 | 137 ft | 2 kts | 206° |
| 2026-04-29 14:21 | -20.89029 | 55.51183 | 136 ft | 2 kts | 205° |
| 2026-04-29 14:21 | -20.89015 | 55.51190 | 134 ft | 2 kts | 205° |
| 2026-04-29 14:21 | -20.89001 | 55.51197 | 133 ft | 2 kts | 211° |
| 2026-04-29 14:21 | -20.88990 | 55.51207 | 132 ft | 2 kts | 235° |
| 2026-04-29 14:22 | -20.88983 | 55.51221 | 131 ft | 2 kts | 252° |
| 2026-04-29 14:22 | -20.88980 | 55.51237 | 130 ft | 2 kts | 272° |
| 2026-04-29 14:22 | -20.88982 | 55.51252 | 130 ft | 2 kts | 290° |
| 2026-04-29 14:22 | -20.88985 | 55.51259 | 130 ft | 1 kts | 297° |
| 2026-04-29 14:23 | -20.88986 | 55.51262 | 130 ft | 0 kts | 296° |
| 2026-04-29 14:23 | -20.88986 | 55.51261 | 129 ft | 0 kts | 295° |
| 2026-04-29 14:24 | -20.88984 | 55.51258 | 129 ft | 2 kts | 295° |
| 2026-04-29 14:24 | -20.88982 | 55.51254 | 129 ft | 0 kts | 295° |
| 2026-04-29 14:26 | -20.88981 | 55.51251 | 129 ft | 2 kts | 293° |
| 2026-04-29 14:26 | -20.88963 | 55.51218 | 128 ft | 8 kts | 310° |
| 2026-04-29 14:26 | -20.88892 | 55.51176 | 124 ft | 14 kts | 336° |
| 2026-04-29 14:27 | -20.88779 | 55.51131 | 115 ft | 20 kts | 340° |
| 2026-04-29 14:27 | -20.88712 | 55.51031 | 112 ft | 17 kts | 282° |
| 2026-04-29 14:27 | -20.88685 | 55.50899 | 111 ft | 19 kts | 282° |
| 2026-04-29 14:28 | -20.88623 | 55.50594 | 109 ft | 22 kts | 281° |
| 2026-04-29 14:28 | -20.88566 | 55.50495 | 104 ft | 3 kts | 288° |
| 2026-04-29 14:28 | -20.88575 | 55.50480 | 105 ft | 1 kts | 199° |
| 2026-04-29 14:28 | -20.88584 | 55.50481 | 105 ft | 1 kts | 155° |
| 2026-04-29 14:29 | -20.88599 | 55.50505 | 106 ft | 8 kts | 105° |
| 2026-04-29 14:29 | -20.88647 | 55.50715 | 110 ft | 65 kts | 102° |
| 2026-04-29 14:29 | -20.88800 | 55.51471 | 111 ft | 139 kts | 102° |
| 2026-04-29 14:29 | -20.89047 | 55.52704 | 190 ft | 191 kts | 101° |
| 2026-04-29 14:30 | -20.89324 | 55.54110 | 959 ft | 195 kts | 97° |
| 2026-04-29 14:30 | -20.89308 | 55.55496 | 1895 ft | 192 kts | 75° |
| 2026-04-29 14:30 | -20.88747 | 55.56712 | 2669 ft | 184 kts | 54° |
| 2026-04-29 14:30 | -20.87887 | 55.57758 | 3143 ft | 196 kts | 40° |
| 2026-04-29 14:31 | -20.86762 | 55.58722 | 3545 ft | 214 kts | 40° |
| 2026-04-29 14:31 | -20.85600 | 55.59808 | 3960 ft | 232 kts | 44° |
| 2026-04-29 14:31 | -20.84415 | 55.61062 | 4377 ft | 249 kts | 46° |
| 2026-04-29 14:31 | -20.83186 | 55.62476 | 4823 ft | 266 kts | 48° |
| 2026-04-29 14:32 | -20.81949 | 55.63971 | 5465 ft | 273 kts | 49° |
| 2026-04-29 14:32 | -20.80704 | 55.65514 | 6196 ft | 276 kts | 50° |
| 2026-04-29 14:32 | -20.79451 | 55.67088 | 6899 ft | 280 kts | 50° |
| 2026-04-29 14:32 | -20.78205 | 55.68666 | 7588 ft | 283 kts | 51° |
| 2026-04-29 14:33 | -20.76932 | 55.70285 | 8276 ft | 285 kts | 51° |
| 2026-04-29 14:33 | -20.75662 | 55.71903 | 8951 ft | 288 kts | 51° |
| 2026-04-29 14:33 | -20.74372 | 55.73547 | 9616 ft | 290 kts | 50° |
| 2026-04-29 14:33 | -20.73075 | 55.75201 | 10257 ft | 294 kts | 50° |
| 2026-04-29 14:34 | -20.71745 | 55.76894 | 10640 ft | 307 kts | 50° |
| 2026-04-29 14:34 | -20.70330 | 55.78698 | 10923 ft | 323 kts | 50° |
| 2026-04-29 14:34 | -20.68858 | 55.80571 | 11337 ft | 334 kts | 51° |
| 2026-04-29 14:34 | -20.67369 | 55.82467 | 11941 ft | 338 kts | 51° |
| 2026-04-29 14:35 | -20.65852 | 55.84395 | 12573 ft | 341 kts | 51° |
| 2026-04-29 14:35 | -20.64323 | 55.86342 | 13180 ft | 344 kts | 51° |
| 2026-04-29 14:35 | -20.62780 | 55.88303 | 13767 ft | 348 kts | 51° |
| 2026-04-29 14:35 | -20.61141 | 55.90250 | 14318 ft | 353 kts | 48° |
| 2026-04-29 14:36 | -20.59463 | 55.92161 | 14782 ft | 358 kts | 48° |
| 2026-04-29 14:36 | -20.57757 | 55.94097 | 14999 ft | 360 kts | 48° |
| 2026-04-29 14:36 | -20.56036 | 55.96051 | 15012 ft | 360 kts | 48° |
| 2026-04-29 14:36 | -20.54316 | 55.98004 | 15015 ft | 359 kts | 48° |
| 2026-04-29 14:37 | -20.52603 | 55.99952 | 15016 ft | 359 kts | 48° |
| 2026-04-29 14:37 | -20.50912 | 56.01875 | 15016 ft | 359 kts | 49° |
| 2026-04-29 14:37 | -20.49195 | 56.03825 | 15016 ft | 359 kts | 48° |
| 2026-04-29 14:37 | -20.47481 | 56.05772 | 15016 ft | 358 kts | 49° |
| 2026-04-29 14:38 | -20.45773 | 56.07708 | 15015 ft | 358 kts | 49° |
| 2026-04-29 14:38 | -20.44112 | 56.09647 | 15014 ft | 358 kts | 54° |
| 2026-04-29 14:38 | -20.42847 | 56.11928 | 15011 ft | 355 kts | 69° |
| 2026-04-29 14:38 | -20.42199 | 56.14433 | 15013 ft | 353 kts | 84° |
| 2026-04-29 14:39 | -20.42095 | 56.17058 | 15019 ft | 352 kts | 92° |
| 2026-04-29 14:39 | -20.42124 | 56.19638 | 15017 ft | 351 kts | 92° |
| 2026-04-29 14:39 | -20.42165 | 56.22258 | 15015 ft | 351 kts | 92° |
| 2026-04-29 14:39 | -20.42200 | 56.24834 | 15014 ft | 351 kts | 92° |
| 2026-04-29 14:40 | -20.42226 | 56.27422 | 15015 ft | 351 kts | 92° |
| 2026-04-29 14:40 | -20.42247 | 56.30034 | 15016 ft | 351 kts | 92° |
| 2026-04-29 14:40 | -20.42265 | 56.32649 | 15016 ft | 351 kts | 92° |
| 2026-04-29 14:40 | -20.42281 | 56.35240 | 15016 ft | 351 kts | 92° |
| 2026-04-29 14:41 | -20.42294 | 56.37835 | 15015 ft | 351 kts | 91° |
| 2026-04-29 14:41 | -20.42307 | 56.40421 | 15013 ft | 351 kts | 92° |
| 2026-04-29 14:41 | -20.42318 | 56.43016 | 15013 ft | 351 kts | 92° |
| 2026-04-29 14:41 | -20.42329 | 56.45615 | 15013 ft | 351 kts | 92° |
| 2026-04-29 14:42 | -20.42341 | 56.48204 | 15014 ft | 351 kts | 92° |
| 2026-04-29 14:42 | -20.42352 | 56.50827 | 15013 ft | 351 kts | 92° |
| 2026-04-29 14:42 | -20.42334 | 56.53421 | 15012 ft | 352 kts | 89° |
| 2026-04-29 14:42 | -20.42151 | 56.56025 | 14901 ft | 351 kts | 86° |
| 2026-04-29 14:43 | -20.41931 | 56.58609 | 14305 ft | 359 kts | 86° |
| 2026-04-29 14:43 | -20.41707 | 56.61281 | 13786 ft | 360 kts | 86° |
| 2026-04-29 14:43 | -20.41494 | 56.63928 | 13404 ft | 359 kts | 86° |
| 2026-04-29 14:43 | -20.41290 | 56.66539 | 12986 ft | 358 kts | 85° |
| 2026-04-29 14:44 | -20.41087 | 56.69176 | 12564 ft | 357 kts | 85° |
| 2026-04-29 14:44 | -20.40888 | 56.71804 | 12140 ft | 356 kts | 85° |
| 2026-04-29 14:44 | -20.40690 | 56.74446 | 11711 ft | 356 kts | 85° |
| 2026-04-29 14:44 | -20.40495 | 56.77068 | 11287 ft | 355 kts | 85° |
| 2026-04-29 14:45 | -20.40302 | 56.79664 | 10862 ft | 354 kts | 85° |
| 2026-04-29 14:45 | -20.40108 | 56.82270 | 10436 ft | 353 kts | 85° |
| 2026-04-29 14:45 | -20.39914 | 56.84877 | 10006 ft | 351 kts | 85° |
| 2026-04-29 14:45 | -20.39721 | 56.87466 | 9577 ft | 350 kts | 85° |
| 2026-04-29 14:46 | -20.39529 | 56.90036 | 9151 ft | 349 kts | 85° |
| 2026-04-29 14:46 | -20.39339 | 56.92589 | 8725 ft | 348 kts | 85° |
| 2026-04-29 14:46 | -20.39149 | 56.95148 | 8295 ft | 347 kts | 85° |
| 2026-04-29 14:46 | -20.38958 | 56.97708 | 7865 ft | 346 kts | 85° |
| 2026-04-29 14:47 | -20.38766 | 57.00270 | 7431 ft | 345 kts | 85° |
| 2026-04-29 14:47 | -20.38575 | 57.02810 | 6999 ft | 344 kts | 85° |
| 2026-04-29 14:47 | -20.38384 | 57.05338 | 6567 ft | 343 kts | 85° |
| 2026-04-29 14:47 | -20.38258 | 57.07012 | 6281 ft | 342 kts | 85° |
| 2026-04-29 14:48 | -20.38002 | 57.10383 | 5704 ft | 341 kts | 85° |
| 2026-04-29 14:48 | -20.37813 | 57.12889 | 5273 ft | 340 kts | 85° |
| 2026-04-29 14:48 | -20.37625 | 57.15376 | 4844 ft | 339 kts | 85° |
| 2026-04-29 14:48 | -20.37433 | 57.17886 | 4408 ft | 337 kts | 84° |
| 2026-04-29 14:49 | -20.37241 | 57.20402 | 3969 ft | 336 kts | 84° |
| 2026-04-29 14:49 | -20.37053 | 57.22875 | 3594 ft | 333 kts | 84° |
| 2026-04-29 14:49 | -20.36867 | 57.25298 | 3498 ft | 321 kts | 85° |
| 2026-04-29 14:49 | -20.36691 | 57.27609 | 3499 ft | 307 kts | 85° |
| 2026-04-29 14:50 | -20.36521 | 57.29836 | 3502 ft | 294 kts | 84° |
| 2026-04-29 14:50 | -20.36360 | 57.31961 | 3504 ft | 282 kts | 84° |
| 2026-04-29 14:50 | -20.36203 | 57.34005 | 3504 ft | 270 kts | 84° |
| 2026-04-29 14:50 | -20.36053 | 57.35963 | 3425 ft | 262 kts | 84° |
| 2026-04-29 14:51 | -20.35905 | 57.37880 | 3246 ft | 259 kts | 84° |
| 2026-04-29 14:51 | -20.35761 | 57.39744 | 3221 ft | 250 kts | 84° |
| 2026-04-29 14:51 | -20.35620 | 57.41572 | 3216 ft | 239 kts | 84° |
| 2026-04-29 14:51 | -20.35486 | 57.43296 | 3211 ft | 229 kts | 84° |
| 2026-04-29 14:52 | -20.35359 | 57.44938 | 3205 ft | 218 kts | 84° |
| 2026-04-29 14:52 | -20.35237 | 57.46508 | 3208 ft | 207 kts | 84° |
| 2026-04-29 14:52 | -20.35119 | 57.48022 | 3216 ft | 205 kts | 84° |
| 2026-04-29 14:52 | -20.35165 | 57.49541 | 3217 ft | 206 kts | 98° |
| 2026-04-29 14:53 | -20.35485 | 57.51041 | 3223 ft | 207 kts | 101° |
| 2026-04-29 14:53 | -20.35766 | 57.52532 | 3222 ft | 208 kts | 102° |
| 2026-04-29 14:53 | -20.36194 | 57.54005 | 3170 ft | 205 kts | 109° |
| 2026-04-29 14:53 | -20.36760 | 57.55367 | 2932 ft | 198 kts | 114° |
| 2026-04-29 14:54 | -20.37375 | 57.56650 | 2635 ft | 193 kts | 115° |
| 2026-04-29 14:54 | -20.37993 | 57.57906 | 2349 ft | 188 kts | 115° |
| 2026-04-29 14:54 | -20.38586 | 57.59128 | 2066 ft | 183 kts | 114° |
| 2026-04-29 14:54 | -20.39160 | 57.60324 | 1792 ft | 179 kts | 114° |
| 2026-04-29 14:55 | -20.39715 | 57.61482 | 1532 ft | 174 kts | 114° |
| 2026-04-29 14:55 | -20.40264 | 57.62624 | 1282 ft | 169 kts | 114° |
| 2026-04-29 14:55 | -20.40787 | 57.63722 | 1029 ft | 166 kts | 115° |
| 2026-04-29 14:55 | -20.41312 | 57.64793 | 772 ft | 163 kts | 116° |
| 2026-04-29 14:56 | -20.41832 | 57.65864 | 511 ft | 160 kts | 115° |
| 2026-04-29 14:56 | -20.42327 | 57.66896 | 331 ft | 152 kts | 115° |
| 2026-04-29 14:56 | -20.42795 | 57.67874 | 195 ft | 135 kts | 117° |
| 2026-04-29 14:56 | -20.43088 | 57.68491 | 177 ft | 63 kts | 114° |
| 2026-04-29 14:57 | -20.43285 | 57.68908 | 159 ft | 62 kts | 120° |
| 2026-04-29 14:57 | -20.43470 | 57.69291 | 138 ft | 55 kts | 112° |
| 2026-04-29 14:57 | -20.43576 | 57.69367 | 133 ft | 12 kts | 231° |
| 2026-04-29 14:57 | -20.43626 | 57.69316 | 133 ft | 9 kts | 217° |
| 2026-04-29 14:58 | -20.43645 | 57.69267 | 136 ft | 6 kts | 272° |
| 2026-04-29 14:58 | -20.43635 | 57.69226 | 138 ft | 4 kts | 291° |
| 2026-04-29 14:58 | -20.43622 | 57.69197 | 140 ft | 3 kts | 297° |
| 2026-04-29 14:58 | -20.43605 | 57.69163 | 142 ft | 7 kts | 298° |
| 2026-04-29 14:59 | -20.43570 | 57.69094 | 146 ft | 14 kts | 299° |
| 2026-04-29 14:59 | -20.43507 | 57.68973 | 153 ft | 23 kts | 296° |
| 2026-04-29 14:59 | -20.43432 | 57.68817 | 161 ft | 21 kts | 297° |
| 2026-04-29 14:59 | -20.43372 | 57.68686 | 167 ft | 18 kts | 295° |
| 2026-04-29 15:00 | -20.43323 | 57.68577 | 171 ft | 15 kts | 297° |
| 2026-04-29 15:00 | -20.43279 | 57.68491 | 175 ft | 9 kts | 298° |
| 2026-04-29 15:00 | -20.43252 | 57.68436 | 177 ft | 7 kts | 291° |
| 2026-04-29 15:00 | -20.43261 | 57.68390 | 178 ft | 7 kts | 236° |
| 2026-04-29 15:01 | -20.43275 | 57.68324 | 179 ft | 12 kts | 282° |
| 2026-04-29 15:01 | -20.43230 | 57.68204 | 183 ft | 22 kts | 296° |
| 2026-04-29 15:01 | -20.43197 | 57.68063 | 187 ft | 16 kts | 253° |
| 2026-04-29 15:01 | -20.43248 | 57.67971 | 188 ft | 0 kts | 237° |
| 2026-04-29 15:02 | -20.43250 | 57.67968 | 188 ft | 1 kts | 235° |
| 2026-04-29 15:02 | -20.43255 | 57.67960 | 189 ft | 0 kts | 236° |